Time;durP1;ratioP1;P1;durP2;ratioP2;P2;SDS_P1;SDS_P2;PMS_P1;PMS_P2;Temp;Humidity;BMP_temperature;BMP_pressure;BME280_temperature;BME280_humidity;BME280_pressure;Samples;Min_cycle;Max_cycle;Signal;HPM_P1;HPM_P2
2024/04/14 00:04:00;;;;;;;0.38;0.20;;;;;;;16.39;60.49;101054.13;16899524;26;20003;-48
2024/04/14 00:11:36;;;;;;;0.17;0.17;;;;;;;16.79;59.76;101045.16;16909526;26;20595;-46
2024/04/14 00:19:19;;;;;;;0.00;0.00;;;;;;;16.92;59.43;101030.47;16909317;26;20365;-53
2024/04/14 00:26:54;;;;;;;0.00;0.00;;;;;;;16.92;59.47;101014.19;16925164;26;20096;-48
2024/04/14 00:34:31;;;;;;;0.00;0.00;;;;;;;16.78;59.22;101003.66;16903786;26;20014;-47
2024/04/14 00:42:07;;;;;;;0.20;0.20;;;;;;;17.01;58.62;100993.72;16909247;26;20035;-55
2024/04/14 00:49:45;;;;;;;0.10;0.10;;;;;;;17.18;58.08;100988.31;16907833;26;20002;-48
2024/04/14 00:57:20;;;;;;;0.80;0.40;;;;;;;17.05;58.67;100979.44;16906627;26;19994;-47
2024/04/14 01:04:57;;;;;;;0.47;0.30;;;;;;;17.09;58.17;100974.34;16906142;26;20456;-48
2024/04/14 01:12:33;;;;;;;0.13;0.03;;;;;;;17.15;57.93;100973.34;16906796;26;20003;-50
2024/04/14 01:20:16;;;;;;;0.00;0.00;;;;;;;17.32;57.74;100960.59;16890059;26;20346;-46
2024/04/14 01:27:54;;;;;;;0.20;0.20;;;;;;;17.11;58.50;100936.09;16905414;26;20067;-47
2024/04/14 01:35:29;;;;;;;0.00;0.00;;;;;;;17.21;58.16;100933.56;16904876;26;20010;-48
2024/04/14 01:43:07;;;;;;;0.03;0.03;;;;;;;17.15;58.42;100934.53;16905505;26;19999;-46
2024/04/14 01:50:43;;;;;;;0.00;0.00;;;;;;;17.25;58.42;100932.81;16905558;26;19999;-56
2024/04/14 01:58:20;;;;;;;0.00;0.00;;;;;;;17.01;59.37;100925.94;16904619;26;19995;-49
2024/04/14 02:05:59;;;;;;;0.40;0.30;;;;;;;17.06;59.42;100934.97;16902535;26;20010;-49
2024/04/14 02:13:37;;;;;;;0.38;0.10;;;;;;;17.14;59.02;100932.91;16904461;26;20063;-51
2024/04/14 02:21:12;;;;;;;0.00;0.00;;;;;;;17.24;58.84;100933.06;16901637;26;19994;-49
2024/04/14 02:28:50;;;;;;;0.47;0.43;;;;;;;16.72;60.82;100934.16;16901865;26;20411;-49
2024/04/14 02:36:27;;;;;;;1.75;0.70;;;;;;;16.90;60.61;100949.38;16902330;26;20043;-55
2024/04/14 02:44:05;;;;;;;0.00;0.00;;;;;;;16.83;60.84;100956.84;16903183;26;20022;-47
2024/04/14 02:51:41;;;;;;;0.10;0.10;;;;;;;16.84;61.47;100953.06;16902828;26;20002;-47
2024/04/14 02:59:19;;;;;;;0.38;0.38;;;;;;;17.20;60.37;100949.00;16902735;26;20047;-50
2024/04/14 03:06:55;;;;;;;0.00;0.00;;;;;;;17.09;60.69;100941.78;16901441;26;20044;-50
2024/04/14 03:14:34;;;;;;;0.00;0.00;;;;;;;17.22;60.57;100949.59;16878387;21;20008;-49
2024/04/14 03:22:10;;;;;;;0.08;0.08;;;;;;;16.87;61.58;100951.75;16679702;26;20000;-51
2024/04/14 03:29:48;;;;;;;0.75;0.63;;;;;;;16.66;62.63;100958.69;16636743;26;20346;-47
2024/04/14 03:37:23;;;;;;;0.00;0.00;;;;;;;16.63;63.17;100960.00;16624451;26;20073;-48
2024/04/14 03:45:01;;;;;;;0.00;0.00;;;;;;;16.75;63.10;100974.34;16623503;26;20011;-51
2024/04/14 03:52:36;;;;;;;0.30;0.30;;;;;;;16.68;63.42;100970.94;16647049;26;20094;-49
2024/04/14 04:00:14;;;;;;;0.00;0.00;;;;;;;17.04;62.56;100983.22;16630752;26;20035;-47
2024/04/14 04:07:52;;;;;;;0.00;0.00;;;;;;;16.89;63.13;100993.81;16643082;26;20004;-53
2024/04/14 04:15:30;;;;;;;0.00;0.00;;;;;;;16.85;63.24;100992.66;16633817;26;20000;-47
2024/04/14 04:23:05;;;;;;;6.03;1.40;;;;;;;16.47;65.07;100987.91;16600334;26;19996;-49
2024/04/14 04:30:43;;;;;;;0.05;0.05;;;;;;;16.68;64.41;101008.06;16645610;26;20465;-51
2024/04/14 04:38:18;;;;;;;0.50;0.35;;;;;;;16.61;63.49;101016.34;16603120;26;20444;-51
2024/04/14 04:45:56;;;;;;;0.30;0.30;;;;;;;16.46;64.15;101030.44;16620936;26;19996;-48
2024/04/14 04:53:31;;;;;;;0.17;0.17;;;;;;;16.64;63.18;101042.13;16647626;26;20008;-51
2024/04/14 05:01:09;;;;;;;0.45;0.10;;;;;;;16.40;61.50;101069.31;16614485;26;20473;-51
2024/04/14 05:08:44;;;;;;;0.20;0.17;;;;;;;16.62;60.59;101087.63;16630366;26;20105;-50
2024/04/14 05:16:25;;;;;;;0.10;0.10;;;;;;;16.36;61.03;101100.66;16630838;26;19996;-55
2024/04/14 05:24:00;;;;;;;1.55;0.47;;;;;;;16.17;60.78;101108.13;16650151;26;20001;-53
2024/04/14 05:31:38;;;;;;;0.00;0.00;;;;;;;15.83;61.49;101120.66;16688940;26;20000;-49
2024/04/14 05:39:15;;;;;;;0.60;0.47;;;;;;;16.14;60.27;101119.47;16599074;26;20052;-49
2024/04/14 05:46:53;;;;;;;0.00;0.00;;;;;;;16.49;59.69;101132.09;16670962;26;20001;-52
2024/04/14 05:54:28;;;;;;;0.00;0.00;;;;;;;16.16;59.95;101132.75;16578654;26;20001;-52
2024/04/14 06:02:06;;;;;;;0.00;0.00;;;;;;;16.30;59.82;101151.22;16576835;26;20462;-50
2024/04/14 06:09:41;;;;;;;0.00;0.00;;;;;;;16.30;60.80;101164.75;16577739;26;20009;-53
2024/04/14 06:17:19;;;;;;;0.17;0.17;;;;;;;16.49;60.00;101167.31;16673170;26;20070;-49
2024/04/14 06:24:54;;;;;;;0.55;0.45;;;;;;;15.99;61.33;101173.25;16686276;26;20118;-53
2024/04/14 06:32:32;;;;;;;0.00;0.00;;;;;;;15.99;60.51;101184.06;16685516;26;20004;-51
2024/04/14 06:40:09;;;;;;;0.43;0.43;;;;;;;16.41;59.79;101189.34;16592008;26;20005;-52
2024/04/14 06:47:46;;;;;;;1.50;0.57;;;;;;;16.05;60.31;101188.56;16587288;26;20119;-49
2024/04/14 06:55:21;;;;;;;2.38;0.35;;;;;;;16.80;58.94;101195.91;16578535;26;20442;-48
2024/04/14 07:03:01;;;;;;;0.55;0.47;;;;;;;16.33;59.90;101194.09;16584451;26;20005;-48
2024/04/14 07:10:36;;;;;;;0.00;0.00;;;;;;;16.18;60.36;101215.44;16585826;26;20009;-47
2024/04/14 07:18:16;;;;;;;0.05;0.05;;;;;;;16.02;59.60;101224.22;16578792;26;20411;-50
2024/04/14 07:25:51;;;;;;;0.00;0.00;;;;;;;16.69;58.90;101246.34;16585530;26;20012;-54
2024/04/14 07:33:32;;;;;;;0.00;0.00;;;;;;;17.47;55.40;101244.13;16580452;26;20313;-52
2024/04/14 07:41:08;;;;;;;0.00;0.00;;;;;;;16.62;54.62;101256.50;16650984;26;20467;-49
2024/04/14 07:48:47;;;;;;;2.00;0.35;;;;;;;16.61;51.88;101260.28;16677310;26;20011;-55
2024/04/14 07:56:22;;;;;;;0.00;0.00;;;;;;;16.17;51.35;101267.09;16615644;26;20016;-55
2024/04/14 08:04:01;;;;;;;0.00;0.00;;;;;;;16.59;52.15;101279.47;16670288;26;20020;-48
2024/04/14 08:11:38;;;;;;;0.00;0.00;;;;;;;16.41;52.28;101279.59;16590875;26;20403;-48
2024/04/14 08:19:16;;;;;;;0.00;0.00;;;;;;;16.71;49.83;101289.50;16625964;26;20335;-47
2024/04/14 08:26:51;;;;;;;0.00;0.00;;;;;;;16.28;48.23;101294.22;16630710;26;20340;-49
2024/04/14 08:34:30;;;;;;;0.00;0.00;;;;;;;16.51;48.57;101300.69;16658815;26;20016;-51
2024/04/14 08:42:07;;;;;;;0.00;0.00;;;;;;;17.15;46.94;101298.84;16629201;26;20033;-51
2024/04/14 08:49:45;;;;;;;0.00;0.00;;;;;;;17.00;47.12;101307.50;16640759;26;20001;-51
2024/04/14 08:57:24;;;;;;;0.00;0.00;;;;;;;17.10;47.94;101317.75;16630245;26;20402;-49
2024/04/14 09:05:02;;;;;;;2.90;1.23;;;;;;;17.40;46.85;101314.00;16649993;26;20005;-48
2024/04/14 09:12:40;;;;;;;0.00;0.00;;;;;;;18.63;44.54;101317.78;16644002;26;20016;-51
2024/04/14 09:20:19;;;;;;;0.00;0.00;;;;;;;17.97;42.74;101311.28;16627214;26;20007;-48
2024/04/14 09:28:03;;;;;;;0.00;0.00;;;;;;;17.97;40.92;101317.53;16637995;26;20008;-48
2024/04/14 09:35:41;;;;;;;0.10;0.00;;;;;;;18.13;39.45;101325.94;16638316;26;20507;-51
2024/04/14 09:43:19;;;;;;;0.32;0.32;;;;;;;18.49;39.20;101341.75;16618511;26;20458;-53
2024/04/14 09:51:00;;;;;;;0.00;0.00;;;;;;;17.62;37.14;101344.81;16637669;26;20043;-49
2024/04/14 09:58:37;;;;;;;0.63;0.15;;;;;;;17.37;38.05;101317.19;16610311;26;20013;-50
2024/04/14 10:06:18;;;;;;;4.68;0.30;;;;;;;17.99;36.63;101337.13;16634306;26;20000;-51
2024/04/14 10:13:54;;;;;;;0.00;0.00;;;;;;;17.73;38.96;101345.88;16625456;26;20007;-48
2024/04/14 10:21:35;;;;;;;0.00;0.00;;;;;;;17.40;40.29;101352.84;16641687;26;20015;-49
2024/04/14 10:29:10;;;;;;;0.05;0.03;;;;;;;17.52;40.18;101359.03;16632843;26;20518;-50
2024/04/14 10:36:58;;;;;;;0.00;0.00;;;;;;;17.11;39.76;101365.50;16667435;26;20020;-49
2024/04/14 10:44:33;;;;;;;0.00;0.00;;;;;;;16.75;39.30;101358.47;16626005;26;19997;-50
2024/04/14 10:52:11;;;;;;;0.00;0.00;;;;;;;16.81;37.58;101365.66;16656377;26;20037;-48
2024/04/14 10:59:47;;;;;;;0.00;0.00;;;;;;;17.50;38.89;101374.75;16627265;26;20004;-51
2024/04/14 11:07:25;;;;;;;0.20;0.20;;;;;;;18.39;37.12;101370.69;16613077;26;20001;-50
2024/04/14 11:15:03;;;;;;;0.00;0.00;;;;;;;17.96;34.99;101370.22;16639993;26;20015;-50
2024/04/14 11:22:44;;;;;;;0.00;0.00;;;;;;;17.37;38.09;101377.72;16640243;26;20048;-51
2024/04/14 11:30:20;;;;;;;0.00;0.00;;;;;;;17.88;37.17;101378.75;16667304;26;20004;-50
2024/04/14 11:37:59;;;;;;;0.00;0.00;;;;;;;18.64;37.63;101373.78;16645915;26;20423;-49
2024/04/14 11:45:37;;;;;;;0.00;0.00;;;;;;;17.92;37.21;101393.50;16665867;26;20004;-51
2024/04/14 11:53:15;;;;;;;0.00;0.00;;;;;;;17.73;36.71;101390.16;16678215;26;20001;-52
2024/04/14 12:00:51;;;;;;;3.13;0.55;;;;;;;17.92;36.33;101374.50;16645662;26;20603;-47
2024/04/14 12:08:29;;;;;;;0.30;0.28;;;;;;;17.83;35.77;101365.91;16672784;26;20000;-52
2024/04/14 12:16:05;;;;;;;0.00;0.00;;;;;;;18.55;33.99;101361.69;16671745;26;20024;-50
2024/04/14 12:23:45;;;;;;;0.08;0.08;;;;;;;18.48;33.82;101359.16;16643451;26;20451;-52
2024/04/14 12:31:22;;;;;;;0.00;0.00;;;;;;;18.18;34.08;101354.00;16681037;26;20008;-54
2024/04/14 12:39:00;;;;;;;0.00;0.00;;;;;;;17.97;34.74;101349.31;16686085;26;20005;-55
2024/04/14 12:46:36;;;;;;;0.90;0.52;;;;;;;17.98;33.91;101342.81;16657233;26;20000;-51
2024/04/14 12:54:15;;;;;;;0.00;0.00;;;;;;;18.75;33.93;101343.00;16638366;26;20012;-48
2024/04/14 13:01:51;;;;;;;0.00;0.00;;;;;;;19.27;33.55;101341.78;16607569;26;20264;-50
2024/04/14 13:09:28;;;;;;;0.00;0.00;;;;;;;19.29;30.92;101334.19;16643414;26;20323;-48
2024/04/14 13:17:05;;;;;;;1.55;0.73;;;;;;;19.08;32.18;101335.84;16626246;26;20023;-51
2024/04/14 13:24:44;;;;;;;0.00;0.00;;;;;;;17.72;32.03;101341.47;16620001;26;20001;-49
2024/04/14 13:32:20;;;;;;;0.00;0.00;;;;;;;18.21;32.99;101330.97;16630225;26;19996;-49
2024/04/14 13:39:57;;;;;;;0.00;0.00;;;;;;;18.51;29.49;101315.16;16627903;26;20004;-51
2024/04/14 13:47:32;;;;;;;0.00;0.00;;;;;;;17.78;31.78;101310.69;16629421;26;20000;-53
2024/04/14 13:55:11;;;;;;;0.00;0.00;;;;;;;17.90;30.78;101302.47;16634616;26;20347;-49
2024/04/14 14:02:47;;;;;;;0.00;0.00;;;;;;;17.83;32.21;101295.31;16633967;26;20004;-49
2024/04/14 14:10:25;;;;;;;0.10;0.10;;;;;;;16.65;31.02;101301.28;16592668;26;20016;-50
2024/04/14 14:18:00;;;;;;;0.00;0.00;;;;;;;17.53;30.45;101281.13;16631085;26;20073;-48
2024/04/14 14:25:38;;;;;;;0.00;0.00;;;;;;;18.14;31.51;101286.84;16632597;26;20078;-51
2024/04/14 14:41:03;;;;;;;0.00;0.00;;;;;;;18.04;30.90;101282.06;16627877;26;20294;-48
2024/04/14 14:48:39;;;;;;;0.00;0.00;;;;;;;17.45;32.80;101278.81;16645023;26;20420;-51
2024/04/14 14:56:19;;;;;;;0.00;0.00;;;;;;;17.23;32.06;101270.53;16630896;26;20001;-51
2024/04/14 15:03:58;;;;;;;2.83;0.98;;;;;;;17.40;32.21;101281.44;16631172;26;20001;-54
2024/04/14 15:11:35;;;;;;;0.00;0.00;;;;;;;17.03;33.39;101270.97;16630283;26;20553;-48
2024/04/14 15:19:12;;;;;;;0.00;0.00;;;;;;;16.85;31.05;101279.25;16618396;26;20023;-53
2024/04/14 15:26:50;;;;;;;0.00;0.00;;;;;;;16.97;30.15;101266.47;16631628;26;20004;-52
2024/04/14 15:34:25;;;;;;;0.00;0.00;;;;;;;16.62;28.69;101274.66;16614950;26;20079;-52
2024/04/14 15:42:03;;;;;;;0.00;0.00;;;;;;;16.57;29.22;101262.63;16630625;26;20463;-53
2024/04/14 15:49:38;;;;;;;0.00;0.00;;;;;;;16.47;29.85;101256.16;16626666;26;20073;-53
2024/04/14 15:57:16;;;;;;;0.00;0.00;;;;;;;16.42;29.37;101256.88;16629808;26;20016;-54
2024/04/14 16:04:52;;;;;;;0.00;0.00;;;;;;;16.44;29.89;101243.91;16602714;26;20321;-54
2024/04/14 16:12:30;;;;;;;1.08;0.63;;;;;;;15.98;31.51;101242.81;16625585;26;20301;-52
2024/04/14 16:20:05;;;;;;;0.10;0.10;;;;;;;16.01;31.98;101236.94;16616973;26;20005;-54
2024/04/14 16:27:43;;;;;;;0.00;0.00;;;;;;;16.17;32.19;101235.41;16624935;26;20082;-53
2024/04/14 16:35:18;;;;;;;0.00;0.00;;;;;;;15.80;32.78;101232.91;16591562;26;20089;-53
2024/04/14 16:42:56;;;;;;;0.00;0.00;;;;;;;15.60;32.28;101232.38;16629224;26;20011;-52
2024/04/14 16:50:38;;;;;;;0.00;0.00;;;;;;;15.55;34.03;101243.88;16623828;26;20005;-51
2024/04/14 16:58:16;;;;;;;0.00;0.00;;;;;;;15.20;34.11;101248.34;16627860;26;20331;-53
2024/04/14 17:05:51;;;;;;;0.05;0.05;;;;;;;15.73;35.00;101251.16;16642711;26;20443;-52
2024/04/14 17:13:31;;;;;;;0.10;0.10;;;;;;;15.22;35.76;101236.25;16621679;26;20020;-53
2024/04/14 17:21:06;;;;;;;0.08;0.08;;;;;;;14.99;35.99;101234.25;16636109;26;19996;-53
2024/04/14 17:28:44;;;;;;;0.00;0.00;;;;;;;14.86;36.59;101233.59;16641161;26;20012;-53
2024/04/14 17:36:19;;;;;;;0.00;0.00;;;;;;;14.71;36.27;101245.59;16639028;26;20000;-52
2024/04/14 17:44:00;;;;;;;0.00;0.00;;;;;;;14.58;36.23;101244.94;16638189;26;20016;-55
2024/04/14 17:51:42;;;;;;;0.20;0.20;;;;;;;14.47;36.82;101238.38;16640101;26;20028;-53
2024/04/14 17:59:20;;;;;;;0.00;0.00;;;;;;;14.67;36.79;101248.97;16617335;26;19996;-53
2024/04/14 18:06:56;;;;;;;3.53;1.00;;;;;;;14.46;38.66;101251.06;16637542;26;20005;-52
2024/04/14 18:14:33;;;;;;;0.00;0.00;;;;;;;14.21;38.12;101253.75;16615721;26;20424;-53
2024/04/14 18:22:08;;;;;;;0.00;0.00;;;;;;;14.30;39.54;101249.72;16626955;26;20297;-55
2024/04/14 18:29:47;;;;;;;0.55;0.55;;;;;;;14.32;39.95;101259.50;16641514;26;19997;-53
2024/04/14 18:37:23;;;;;;;3.60;0.65;;;;;;;14.14;40.38;101255.72;16619780;26;20016;-56
2024/04/14 18:45:02;;;;;;;0.57;0.45;;;;;;;13.84;41.59;101265.50;16622377;26;20073;-52
2024/04/14 18:52:37;;;;;;;1.15;0.20;;;;;;;13.48;42.58;101273.22;16643083;26;20001;-53
2024/04/14 19:00:16;;;;;;;0.00;0.00;;;;;;;13.42;42.65;101275.94;16639958;26;19997;-53
2024/04/14 19:07:51;;;;;;;0.20;0.10;;;;;;;13.37;43.75;101271.19;16638619;26;20000;-52
2024/04/14 19:15:29;;;;;;;0.03;0.03;;;;;;;12.85;45.30;101259.56;16626400;26;20000;-52
2024/04/14 19:23:07;;;;;;;1.85;0.75;;;;;;;13.08;44.00;101240.19;16604440;26;20005;-55
2024/04/14 19:30:45;;;;;;;1.27;0.52;;;;;;;13.02;44.70;101232.97;16631302;26;20001;-51
2024/04/14 19:38:20;;;;;;;0.20;0.20;;;;;;;12.63;46.48;101239.31;16624334;26;20000;-51
2024/04/14 19:46:00;;;;;;;0.28;0.28;;;;;;;12.48;46.52;101221.53;16637007;26;20000;-55
2024/04/14 19:53:35;;;;;;;0.17;0.17;;;;;;;12.58;47.26;101206.81;16623139;26;20487;-53
2024/04/14 20:01:14;;;;;;;5.40;0.70;;;;;;;12.49;45.76;101201.66;16629969;26;20001;-52
2024/04/14 20:08:50;;;;;;;0.03;0.03;;;;;;;12.39;45.99;101192.38;16631046;26;20012;-54
2024/04/14 20:16:33;;;;;;;1.13;0.50;;;;;;;12.45;47.03;101192.38;16634865;26;20004;-55
2024/04/14 20:24:08;;;;;;;0.00;0.00;;;;;;;12.42;46.96;101181.19;16624710;26;20004;-51
2024/04/14 20:31:47;;;;;;;0.00;0.00;;;;;;;12.33;47.00;101171.69;16632851;26;20096;-53
2024/04/14 20:39:22;;;;;;;0.00;0.00;;;;;;;12.16;48.05;101163.22;16644406;26;20458;-51
2024/04/14 20:47:00;;;;;;;0.10;0.10;;;;;;;11.80;50.42;101159.13;16612406;26;20406;-53
2024/04/14 20:54:36;;;;;;;0.20;0.20;;;;;;;11.72;50.67;101152.09;16619274;26;20332;-51
2024/04/14 21:02:14;;;;;;;0.10;0.10;;;;;;;11.86;49.32;101152.09;16629968;26;19996;-53
2024/04/14 21:09:52;;;;;;;0.00;0.00;;;;;;;10.88;47.73;101066.66;16629987;26;20004;-53
2024/04/14 21:17:29;;;;;;;0.00;0.00;;;;;;;11.39;47.99;101143.19;16721924;21;20369;-53
2024/04/14 21:25:05;;;;;;;0.10;0.10;;;;;;;11.39;48.05;101137.81;16792200;26;20025;-50
2024/04/14 21:32:44;;;;;;;0.25;0.25;;;;;;;11.15;48.87;101125.81;16792233;26;19996;-54
2024/04/14 21:40:19;;;;;;;0.00;0.00;;;;;;;10.75;50.16;101089.97;16780508;26;20019;-51
2024/04/14 21:47:57;;;;;;;0.00;0.00;;;;;;;11.07;50.03;101101.81;16792715;26;19999;-51
2024/04/14 21:55:32;;;;;;;0.08;0.08;;;;;;;11.12;50.33;101094.78;16792249;26;20003;-50
2024/04/14 22:03:09;;;;;;;0.00;0.00;;;;;;;10.04;52.88;101080.38;16786532;26;20068;-50
2024/04/14 22:10:44;;;;;;;0.00;0.00;;;;;;;10.62;53.31;101075.47;16788095;26;20011;-47
2024/04/14 22:18:22;;;;;;;0.45;0.45;;;;;;;10.90;51.38;101066.44;16774771;26;19996;-53
2024/04/14 22:25:57;;;;;;;0.00;0.00;;;;;;;10.94;53.43;101052.41;16787238;26;19999;-49
2024/04/14 22:33:34;;;;;;;0.00;0.00;;;;;;;10.68;53.35;101050.53;16788715;26;19995;-52
2024/04/14 22:41:09;;;;;;;0.00;0.00;;;;;;;10.67;52.24;101054.22;16787168;26;20011;-51
2024/04/14 22:48:47;;;;;;;0.00;0.00;;;;;;;10.73;51.69;101041.84;16788535;26;20006;-50
2024/04/14 22:56:28;;;;;;;0.32;0.32;;;;;;;10.71;52.59;101033.16;16777799;26;20015;-50
2024/04/14 23:04:05;;;;;;;0.00;0.00;;;;;;;10.88;52.51;101017.50;16787824;26;19999;-51
2024/04/14 23:11:40;;;;;;;0.00;0.00;;;;;;;10.80;52.40;101012.31;16788501;26;20039;-52
2024/04/14 23:19:19;;;;;;;0.00;0.00;;;;;;;10.68;53.88;100990.63;16787320;26;20008;-52
2024/04/14 23:26:53;;;;;;;0.00;0.00;;;;;;;10.89;54.83;101000.34;16787206;26;20003;-52
2024/04/14 23:34:31;;;;;;;0.00;0.00;;;;;;;10.86;53.40;100998.88;16787478;26;20015;-50
2024/04/14 23:42:06;;;;;;;0.00;0.00;;;;;;;10.34;55.47;101010.34;16787604;26;20027;-48
2024/04/14 23:49:44;;;;;;;0.43;0.43;;;;;;;10.59;55.97;101019.53;16786721;26;20004;-50
2024/04/14 23:57:19;;;;;;;1.65;0.52;;;;;;;10.60;54.71;100994.31;16773621;26;20011;-48
